sensor_id;sensor_type;location;lat;lon;timestamp;temperature;humidity
52187;DHT22;38161;53.020;6.598;2023-12-14T00:01:13;4.50;99.90
52187;DHT22;38161;53.020;6.598;2023-12-14T00:03:40;4.50;99.90
52187;DHT22;38161;53.020;6.598;2023-12-14T00:06:12;4.50;99.90
52187;DHT22;38161;53.020;6.598;2023-12-14T00:08:38;4.50;99.90
52187;DHT22;38161;53.020;6.598;2023-12-14T00:11:08;4.40;99.90
52187;DHT22;38161;53.020;6.598;2023-12-14T00:13:34;4.40;99.90
52187;DHT22;38161;53.020;6.598;2023-12-14T00:16:00;4.40;99.90
52187;DHT22;38161;53.020;6.598;2023-12-14T00:18:26;4.40;99.90
52187;DHT22;38161;53.020;6.598;2023-12-14T00:20:52;4.40;99.90
52187;DHT22;38161;53.020;6.598;2023-12-14T00:23:19;4.50;99.90
52187;DHT22;38161;53.020;6.598;2023-12-14T00:25:45;4.40;99.90
52187;DHT22;38161;53.020;6.598;2023-12-14T00:28:11;4.40;99.90
52187;DHT22;38161;53.020;6.598;2023-12-14T00:30:37;4.40;99.90
52187;DHT22;38161;53.020;6.598;2023-12-14T00:33:02;4.40;99.90
52187;DHT22;38161;53.020;6.598;2023-12-14T00:35:28;4.50;99.90
52187;DHT22;38161;53.020;6.598;2023-12-14T00:37:54;4.40;99.90
52187;DHT22;38161;53.020;6.598;2023-12-14T00:40:20;4.40;99.90
52187;DHT22;38161;53.020;6.598;2023-12-14T00:42:45;4.50;99.90
52187;DHT22;38161;53.020;6.598;2023-12-14T00:45:11;4.40;99.90
52187;DHT22;38161;53.020;6.598;2023-12-14T00:47:37;4.40;99.90
52187;DHT22;38161;53.020;6.598;2023-12-14T00:50:03;4.40;99.90
52187;DHT22;38161;53.020;6.598;2023-12-14T00:52:28;4.40;99.90
52187;DHT22;38161;53.020;6.598;2023-12-14T00:54:54;4.40;99.90
52187;DHT22;38161;53.020;6.598;2023-12-14T00:57:20;4.40;99.90
52187;DHT22;38161;53.020;6.598;2023-12-14T00:59:46;4.30;99.90
52187;DHT22;38161;53.020;6.598;2023-12-14T01:02:12;4.30;99.90
52187;DHT22;38161;53.020;6.598;2023-12-14T01:04:37;4.30;99.90
52187;DHT22;38161;53.020;6.598;2023-12-14T01:07:04;4.30;99.90
52187;DHT22;38161;53.020;6.598;2023-12-14T01:09:29;4.30;99.90
52187;DHT22;38161;53.020;6.598;2023-12-14T01:11:55;4.30;99.90
52187;DHT22;38161;53.020;6.598;2023-12-14T01:14:21;4.30;99.90
52187;DHT22;38161;53.020;6.598;2023-12-14T01:16:47;4.30;99.90
52187;DHT22;38161;53.020;6.598;2023-12-14T01:19:12;4.20;99.90
52187;DHT22;38161;53.020;6.598;2023-12-14T01:21:38;4.20;99.90
52187;DHT22;38161;53.020;6.598;2023-12-14T01:24:04;4.20;99.90
52187;DHT22;38161;53.020;6.598;2023-12-14T01:26:30;4.20;99.90
52187;DHT22;38161;53.020;6.598;2023-12-14T01:28:55;4.20;99.90
52187;DHT22;38161;53.020;6.598;2023-12-14T01:31:21;4.20;99.90
52187;DHT22;38161;53.020;6.598;2023-12-14T01:33:50;4.30;99.90
52187;DHT22;38161;53.020;6.598;2023-12-14T01:36:23;4.20;99.90
52187;DHT22;38161;53.020;6.598;2023-12-14T01:38:49;4.20;99.90
52187;DHT22;38161;53.020;6.598;2023-12-14T01:41:15;4.20;99.90
52187;DHT22;38161;53.020;6.598;2023-12-14T01:43:41;4.20;99.90
52187;DHT22;38161;53.020;6.598;2023-12-14T01:46:07;4.20;99.90
52187;DHT22;38161;53.020;6.598;2023-12-14T01:48:33;4.20;99.90
52187;DHT22;38161;53.020;6.598;2023-12-14T01:50:59;4.20;99.90
52187;DHT22;38161;53.020;6.598;2023-12-14T01:53:25;4.20;99.90
52187;DHT22;38161;53.020;6.598;2023-12-14T01:55:51;4.20;99.90
52187;DHT22;38161;53.020;6.598;2023-12-14T01:58:16;4.20;99.90
52187;DHT22;38161;53.020;6.598;2023-12-14T02:00:51;4.20;99.90
52187;DHT22;38161;53.020;6.598;2023-12-14T02:03:18;4.20;99.90
52187;DHT22;38161;53.020;6.598;2023-12-14T02:05:44;4.20;99.90
52187;DHT22;38161;53.020;6.598;2023-12-14T02:08:10;4.20;99.90
52187;DHT22;38161;53.020;6.598;2023-12-14T02:10:35;4.20;99.90
52187;DHT22;38161;53.020;6.598;2023-12-14T02:13:02;4.20;99.90
52187;DHT22;38161;53.020;6.598;2023-12-14T02:15:27;4.20;99.90
52187;DHT22;38161;53.020;6.598;2023-12-14T02:17:53;4.20;99.90
52187;DHT22;38161;53.020;6.598;2023-12-14T02:20:19;4.20;99.90
52187;DHT22;38161;53.020;6.598;2023-12-14T02:23:04;4.20;99.90
52187;DHT22;38161;53.020;6.598;2023-12-14T02:25:30;4.20;99.90
52187;DHT22;38161;53.020;6.598;2023-12-14T02:27:55;4.20;99.90
52187;DHT22;38161;53.020;6.598;2023-12-14T02:30:21;4.20;99.90
52187;DHT22;38161;53.020;6.598;2023-12-14T02:32:47;4.20;99.90
52187;DHT22;38161;53.020;6.598;2023-12-14T02:35:13;4.20;99.90
52187;DHT22;38161;53.020;6.598;2023-12-14T02:37:38;4.20;99.90
52187;DHT22;38161;53.020;6.598;2023-12-14T02:40:08;4.20;99.90
52187;DHT22;38161;53.020;6.598;2023-12-14T02:42:34;4.20;99.90
52187;DHT22;38161;53.020;6.598;2023-12-14T02:45:01;4.20;99.90
52187;DHT22;38161;53.020;6.598;2023-12-14T02:47:28;4.20;99.90
52187;DHT22;38161;53.020;6.598;2023-12-14T02:49:54;4.20;99.90
52187;DHT22;38161;53.020;6.598;2023-12-14T02:52:20;4.20;99.90
52187;DHT22;38161;53.020;6.598;2023-12-14T02:54:46;4.20;99.90
52187;DHT22;38161;53.020;6.598;2023-12-14T02:57:12;4.20;99.90
52187;DHT22;38161;53.020;6.598;2023-12-14T02:59:37;4.20;99.90
52187;DHT22;38161;53.020;6.598;2023-12-14T03:02:04;4.20;99.90
52187;DHT22;38161;53.020;6.598;2023-12-14T03:04:30;4.20;99.90
52187;DHT22;38161;53.020;6.598;2023-12-14T03:06:55;4.20;99.90
52187;DHT22;38161;53.020;6.598;2023-12-14T03:09:22;4.20;99.90
52187;DHT22;38161;53.020;6.598;2023-12-14T03:11:48;4.20;99.90
52187;DHT22;38161;53.020;6.598;2023-12-14T03:14:14;4.20;99.90
52187;DHT22;38161;53.020;6.598;2023-12-14T03:16:40;4.20;99.90
52187;DHT22;38161;53.020;6.598;2023-12-14T03:19:05;4.20;99.90
52187;DHT22;38161;53.020;6.598;2023-12-14T03:21:31;4.20;99.90
52187;DHT22;38161;53.020;6.598;2023-12-14T03:23:57;4.20;99.90
52187;DHT22;38161;53.020;6.598;2023-12-14T03:26:23;4.20;99.90
52187;DHT22;38161;53.020;6.598;2023-12-14T03:28:48;4.20;99.90
52187;DHT22;38161;53.020;6.598;2023-12-14T03:31:14;4.30;99.90
52187;DHT22;38161;53.020;6.598;2023-12-14T03:33:41;4.20;99.90
52187;DHT22;38161;53.020;6.598;2023-12-14T03:36:07;4.20;99.90
52187;DHT22;38161;53.020;6.598;2023-12-14T03:38:33;4.20;99.90
52187;DHT22;38161;53.020;6.598;2023-12-14T03:40:59;4.20;99.90
52187;DHT22;38161;53.020;6.598;2023-12-14T03:43:25;4.20;99.90
52187;DHT22;38161;53.020;6.598;2023-12-14T03:45:50;4.20;99.90
52187;DHT22;38161;53.020;6.598;2023-12-14T03:48:16;4.20;99.90
52187;DHT22;38161;53.020;6.598;2023-12-14T03:50:42;4.20;99.90
52187;DHT22;38161;53.020;6.598;2023-12-14T03:53:08;4.20;99.90
52187;DHT22;38161;53.020;6.598;2023-12-14T03:55:34;4.20;99.90
52187;DHT22;38161;53.020;6.598;2023-12-14T03:57:59;4.20;99.90
52187;DHT22;38161;53.020;6.598;2023-12-14T04:00:25;4.20;99.90
52187;DHT22;38161;53.020;6.598;2023-12-14T04:02:51;4.20;99.90
52187;DHT22;38161;53.020;6.598;2023-12-14T04:05:17;4.20;99.90
52187;DHT22;38161;53.020;6.598;2023-12-14T04:07:43;4.20;99.90
52187;DHT22;38161;53.020;6.598;2023-12-14T04:10:12;4.20;99.90
52187;DHT22;38161;53.020;6.598;2023-12-14T04:12:39;4.20;99.90
52187;DHT22;38161;53.020;6.598;2023-12-14T04:15:06;4.20;99.90
52187;DHT22;38161;53.020;6.598;2023-12-14T04:17:33;4.20;99.90
52187;DHT22;38161;53.020;6.598;2023-12-14T04:19:59;4.20;99.90
52187;DHT22;38161;53.020;6.598;2023-12-14T04:22:25;4.20;99.90
52187;DHT22;38161;53.020;6.598;2023-12-14T04:24:51;4.20;99.90
52187;DHT22;38161;53.020;6.598;2023-12-14T04:27:17;4.20;99.90
52187;DHT22;38161;53.020;6.598;2023-12-14T04:29:43;4.20;99.90
52187;DHT22;38161;53.020;6.598;2023-12-14T04:32:09;4.20;99.90
52187;DHT22;38161;53.020;6.598;2023-12-14T04:34:35;4.20;99.90
52187;DHT22;38161;53.020;6.598;2023-12-14T04:37:01;4.20;99.90
52187;DHT22;38161;53.020;6.598;2023-12-14T04:39:27;4.20;99.90
52187;DHT22;38161;53.020;6.598;2023-12-14T04:41:53;4.20;99.90
52187;DHT22;38161;53.020;6.598;2023-12-14T04:44:19;4.20;99.90
52187;DHT22;38161;53.020;6.598;2023-12-14T04:46:47;4.20;99.90
52187;DHT22;38161;53.020;6.598;2023-12-14T04:49:13;4.20;99.90
52187;DHT22;38161;53.020;6.598;2023-12-14T04:51:39;4.20;99.90
52187;DHT22;38161;53.020;6.598;2023-12-14T04:54:04;4.20;99.90
52187;DHT22;38161;53.020;6.598;2023-12-14T04:56:30;4.20;99.90
52187;DHT22;38161;53.020;6.598;2023-12-14T04:58:56;4.20;99.90
52187;DHT22;38161;53.020;6.598;2023-12-14T05:01:22;4.20;99.90
52187;DHT22;38161;53.020;6.598;2023-12-14T05:03:48;4.20;99.90
52187;DHT22;38161;53.020;6.598;2023-12-14T05:06:13;4.20;99.90
52187;DHT22;38161;53.020;6.598;2023-12-14T05:08:39;4.20;99.90
52187;DHT22;38161;53.020;6.598;2023-12-14T05:11:05;4.20;99.90
52187;DHT22;38161;53.020;6.598;2023-12-14T05:13:31;4.20;99.90
52187;DHT22;38161;53.020;6.598;2023-12-14T05:15:56;4.20;99.90
52187;DHT22;38161;53.020;6.598;2023-12-14T05:18:26;4.30;99.90
52187;DHT22;38161;53.020;6.598;2023-12-14T05:20:52;4.20;99.90
52187;DHT22;38161;53.020;6.598;2023-12-14T05:23:19;4.20;99.90
52187;DHT22;38161;53.020;6.598;2023-12-14T05:25:45;4.20;99.90
52187;DHT22;38161;53.020;6.598;2023-12-14T05:28:10;4.20;99.90
52187;DHT22;38161;53.020;6.598;2023-12-14T05:30:36;4.20;99.90
52187;DHT22;38161;53.020;6.598;2023-12-14T05:33:02;4.20;99.90
52187;DHT22;38161;53.020;6.598;2023-12-14T05:35:28;4.20;99.90
52187;DHT22;38161;53.020;6.598;2023-12-14T05:37:54;4.20;99.90
52187;DHT22;38161;53.020;6.598;2023-12-14T05:40:19;4.20;99.90
52187;DHT22;38161;53.020;6.598;2023-12-14T05:42:45;4.20;99.90
52187;DHT22;38161;53.020;6.598;2023-12-14T05:45:11;4.20;99.90
52187;DHT22;38161;53.020;6.598;2023-12-14T05:47:37;4.20;99.90
52187;DHT22;38161;53.020;6.598;2023-12-14T05:50:04;4.20;99.90
52187;DHT22;38161;53.020;6.598;2023-12-14T05:52:30;4.20;99.90
52187;DHT22;38161;53.020;6.598;2023-12-14T05:54:56;4.20;99.90
52187;DHT22;38161;53.020;6.598;2023-12-14T05:57:21;4.20;99.90
52187;DHT22;38161;53.020;6.598;2023-12-14T05:59:49;4.20;99.90
52187;DHT22;38161;53.020;6.598;2023-12-14T06:02:15;4.10;99.90
52187;DHT22;38161;53.020;6.598;2023-12-14T06:04:41;4.10;99.90
52187;DHT22;38161;53.020;6.598;2023-12-14T06:07:06;4.10;99.90
52187;DHT22;38161;53.020;6.598;2023-12-14T06:09:32;4.10;99.90
52187;DHT22;38161;53.020;6.598;2023-12-14T06:12:04;4.10;99.90
52187;DHT22;38161;53.020;6.598;2023-12-14T06:14:30;4.10;99.90
52187;DHT22;38161;53.020;6.598;2023-12-14T06:16:57;4.20;99.90
52187;DHT22;38161;53.020;6.598;2023-12-14T06:19:23;4.20;99.90
52187;DHT22;38161;53.020;6.598;2023-12-14T06:21:49;4.20;99.90
52187;DHT22;38161;53.020;6.598;2023-12-14T06:24:15;4.20;99.90
52187;DHT22;38161;53.020;6.598;2023-12-14T06:26:44;4.10;99.90
52187;DHT22;38161;53.020;6.598;2023-12-14T06:29:11;4.30;99.90
52187;DHT22;38161;53.020;6.598;2023-12-14T06:31:40;4.20;99.90
52187;DHT22;38161;53.020;6.598;2023-12-14T06:34:06;4.10;99.90
52187;DHT22;38161;53.020;6.598;2023-12-14T06:36:32;4.10;99.90
52187;DHT22;38161;53.020;6.598;2023-12-14T06:38:59;4.10;99.90
52187;DHT22;38161;53.020;6.598;2023-12-14T06:41:26;4.10;99.90
52187;DHT22;38161;53.020;6.598;2023-12-14T06:43:52;4.10;99.90
52187;DHT22;38161;53.020;6.598;2023-12-14T06:46:18;4.10;99.90
52187;DHT22;38161;53.020;6.598;2023-12-14T06:48:44;4.10;99.90
52187;DHT22;38161;53.020;6.598;2023-12-14T06:51:10;4.20;99.90
52187;DHT22;38161;53.020;6.598;2023-12-14T06:53:36;4.20;99.90
52187;DHT22;38161;53.020;6.598;2023-12-14T06:56:03;4.20;99.90
52187;DHT22;38161;53.020;6.598;2023-12-14T06:58:29;4.10;99.90
52187;DHT22;38161;53.020;6.598;2023-12-14T07:00:55;4.10;99.90
52187;DHT22;38161;53.020;6.598;2023-12-14T07:03:20;4.20;99.90
52187;DHT22;38161;53.020;6.598;2023-12-14T07:05:46;4.20;99.90
52187;DHT22;38161;53.020;6.598;2023-12-14T07:08:12;4.20;99.90
52187;DHT22;38161;53.020;6.598;2023-12-14T07:10:38;4.20;99.90
52187;DHT22;38161;53.020;6.598;2023-12-14T07:13:03;4.20;99.90
52187;DHT22;38161;53.020;6.598;2023-12-14T07:15:30;4.20;99.90
52187;DHT22;38161;53.020;6.598;2023-12-14T07:17:55;4.20;99.90
52187;DHT22;38161;53.020;6.598;2023-12-14T07:20:21;4.20;99.90
52187;DHT22;38161;53.020;6.598;2023-12-14T07:22:47;4.20;99.90
52187;DHT22;38161;53.020;6.598;2023-12-14T07:25:13;4.20;99.90
52187;DHT22;38161;53.020;6.598;2023-12-14T07:27:39;4.20;99.90
52187;DHT22;38161;53.020;6.598;2023-12-14T07:30:05;4.20;99.90
52187;DHT22;38161;53.020;6.598;2023-12-14T07:32:31;4.20;99.90
52187;DHT22;38161;53.020;6.598;2023-12-14T07:34:56;4.20;99.90
52187;DHT22;38161;53.020;6.598;2023-12-14T07:37:22;4.20;99.90
52187;DHT22;38161;53.020;6.598;2023-12-14T07:39:48;4.20;99.90
52187;DHT22;38161;53.020;6.598;2023-12-14T07:42:14;4.20;99.90
52187;DHT22;38161;53.020;6.598;2023-12-14T07:44:45;4.20;99.90
52187;DHT22;38161;53.020;6.598;2023-12-14T07:47:10;4.40;99.90
52187;DHT22;38161;53.020;6.598;2023-12-14T07:49:36;4.20;99.90
52187;DHT22;38161;53.020;6.598;2023-12-14T07:52:02;4.20;99.90
52187;DHT22;38161;53.020;6.598;2023-12-14T07:54:28;4.30;99.90
52187;DHT22;38161;53.020;6.598;2023-12-14T07:56:54;4.20;99.90
52187;DHT22;38161;53.020;6.598;2023-12-14T07:59:20;4.30;99.90
52187;DHT22;38161;53.020;6.598;2023-12-14T08:01:46;4.30;99.90
52187;DHT22;38161;53.020;6.598;2023-12-14T08:04:12;4.30;99.90
52187;DHT22;38161;53.020;6.598;2023-12-14T08:06:38;4.30;99.90
52187;DHT22;38161;53.020;6.598;2023-12-14T08:09:07;4.30;99.90
52187;DHT22;38161;53.020;6.598;2023-12-14T08:11:34;4.30;99.90
52187;DHT22;38161;53.020;6.598;2023-12-14T08:14:00;4.30;99.90
52187;DHT22;38161;53.020;6.598;2023-12-14T08:16:25;4.30;99.90
52187;DHT22;38161;53.020;6.598;2023-12-14T08:18:51;4.30;99.90
52187;DHT22;38161;53.020;6.598;2023-12-14T08:21:18;4.30;99.90
52187;DHT22;38161;53.020;6.598;2023-12-14T08:23:44;4.30;99.90
52187;DHT22;38161;53.020;6.598;2023-12-14T08:26:10;4.30;99.90
52187;DHT22;38161;53.020;6.598;2023-12-14T08:28:39;4.30;99.90
52187;DHT22;38161;53.020;6.598;2023-12-14T08:31:04;4.30;99.90
52187;DHT22;38161;53.020;6.598;2023-12-14T08:33:30;4.30;99.90
52187;DHT22;38161;53.020;6.598;2023-12-14T08:35:56;4.30;99.90
52187;DHT22;38161;53.020;6.598;2023-12-14T08:38:23;4.30;99.90
52187;DHT22;38161;53.020;6.598;2023-12-14T08:40:49;4.40;99.90
52187;DHT22;38161;53.020;6.598;2023-12-14T08:43:14;4.30;99.90
52187;DHT22;38161;53.020;6.598;2023-12-14T08:45:40;4.40;99.90
52187;DHT22;38161;53.020;6.598;2023-12-14T08:48:06;4.40;99.90
52187;DHT22;38161;53.020;6.598;2023-12-14T08:50:32;4.40;99.90
52187;DHT22;38161;53.020;6.598;2023-12-14T08:52:57;4.40;99.90
52187;DHT22;38161;53.020;6.598;2023-12-14T08:55:26;4.40;99.90
52187;DHT22;38161;53.020;6.598;2023-12-14T08:57:52;4.40;99.90
52187;DHT22;38161;53.020;6.598;2023-12-14T09:00:19;4.40;99.90
52187;DHT22;38161;53.020;6.598;2023-12-14T09:02:45;4.40;99.90
52187;DHT22;38161;53.020;6.598;2023-12-14T09:05:14;4.40;99.90
52187;DHT22;38161;53.020;6.598;2023-12-14T09:07:42;4.40;99.90
52187;DHT22;38161;53.020;6.598;2023-12-14T09:10:08;4.40;99.90
52187;DHT22;38161;53.020;6.598;2023-12-14T09:12:34;4.40;99.90
52187;DHT22;38161;53.020;6.598;2023-12-14T09:15:01;4.40;99.90
52187;DHT22;38161;53.020;6.598;2023-12-14T09:17:27;4.50;99.90
52187;DHT22;38161;53.020;6.598;2023-12-14T09:19:58;4.50;99.90
52187;DHT22;38161;53.020;6.598;2023-12-14T09:22:25;4.50;99.90
52187;DHT22;38161;53.020;6.598;2023-12-14T09:24:51;4.50;99.90
52187;DHT22;38161;53.020;6.598;2023-12-14T09:27:17;4.50;99.90
52187;DHT22;38161;53.020;6.598;2023-12-14T09:29:43;4.60;99.90
52187;DHT22;38161;53.020;6.598;2023-12-14T09:32:08;4.60;99.90
52187;DHT22;38161;53.020;6.598;2023-12-14T09:34:34;4.60;99.90
52187;DHT22;38161;53.020;6.598;2023-12-14T09:37:00;4.60;99.90
52187;DHT22;38161;53.020;6.598;2023-12-14T09:39:26;4.60;99.90
52187;DHT22;38161;53.020;6.598;2023-12-14T09:42:04;4.60;99.90
52187;DHT22;38161;53.020;6.598;2023-12-14T09:44:31;4.60;99.90
52187;DHT22;38161;53.020;6.598;2023-12-14T09:47:00;4.60;99.90
52187;DHT22;38161;53.020;6.598;2023-12-14T09:49:29;4.60;99.90
52187;DHT22;38161;53.020;6.598;2023-12-14T09:51:58;4.60;99.90
52187;DHT22;38161;53.020;6.598;2023-12-14T09:54:26;4.60;99.90
52187;DHT22;38161;53.020;6.598;2023-12-14T09:56:52;4.60;99.90
52187;DHT22;38161;53.020;6.598;2023-12-14T09:59:21;4.60;99.90
52187;DHT22;38161;53.020;6.598;2023-12-14T10:01:47;4.60;99.90
52187;DHT22;38161;53.020;6.598;2023-12-14T10:04:17;4.60;99.90
52187;DHT22;38161;53.020;6.598;2023-12-14T10:06:45;4.60;99.90
52187;DHT22;38161;53.020;6.598;2023-12-14T10:09:11;4.60;99.90
52187;DHT22;38161;53.020;6.598;2023-12-14T10:11:44;4.70;99.90
52187;DHT22;38161;53.020;6.598;2023-12-14T10:14:24;4.70;99.90
52187;DHT22;38161;53.020;6.598;2023-12-14T10:16:51;4.70;99.90
52187;DHT22;38161;53.020;6.598;2023-12-14T10:19:20;4.80;99.90
52187;DHT22;38161;53.020;6.598;2023-12-14T10:21:47;4.80;99.90
52187;DHT22;38161;53.020;6.598;2023-12-14T10:24:13;4.80;99.90
52187;DHT22;38161;53.020;6.598;2023-12-14T10:26:39;4.80;99.90
52187;DHT22;38161;53.020;6.598;2023-12-14T10:29:06;4.90;99.90
52187;DHT22;38161;53.020;6.598;2023-12-14T10:31:33;4.90;99.90
52187;DHT22;38161;53.020;6.598;2023-12-14T10:34:06;4.90;99.90
52187;DHT22;38161;53.020;6.598;2023-12-14T10:36:33;4.90;99.90
52187;DHT22;38161;53.020;6.598;2023-12-14T10:39:00;5.00;99.90
52187;DHT22;38161;53.020;6.598;2023-12-14T10:41:27;5.00;99.90
52187;DHT22;38161;53.020;6.598;2023-12-14T10:43:56;5.00;99.90
52187;DHT22;38161;53.020;6.598;2023-12-14T10:46:23;5.00;99.90
52187;DHT22;38161;53.020;6.598;2023-12-14T10:48:52;5.10;99.90
52187;DHT22;38161;53.020;6.598;2023-12-14T10:51:21;5.00;99.90
52187;DHT22;38161;53.020;6.598;2023-12-14T10:53:47;5.10;99.90
52187;DHT22;38161;53.020;6.598;2023-12-14T10:56:15;5.10;99.90
52187;DHT22;38161;53.020;6.598;2023-12-14T10:58:53;5.10;99.90
52187;DHT22;38161;53.020;6.598;2023-12-14T11:01:20;5.10;99.90
52187;DHT22;38161;53.020;6.598;2023-12-14T11:03:47;5.10;99.90
52187;DHT22;38161;53.020;6.598;2023-12-14T11:09:04;5.20;99.90
52187;DHT22;38161;53.020;6.598;2023-12-14T11:14:19;5.20;99.90
52187;DHT22;38161;53.020;6.598;2023-12-14T11:16:45;5.20;99.90
52187;DHT22;38161;53.020;6.598;2023-12-14T11:24:21;5.30;99.90
52187;DHT22;38161;53.020;6.598;2023-12-14T11:26:49;5.30;99.90
52187;DHT22;38161;53.020;6.598;2023-12-14T11:29:15;5.30;99.90
52187;DHT22;38161;53.020;6.598;2023-12-14T11:31:42;5.30;99.90
52187;DHT22;38161;53.020;6.598;2023-12-14T11:34:08;5.30;99.90
52187;DHT22;38161;53.020;6.598;2023-12-14T11:36:33;5.20;99.90
52187;DHT22;38161;53.020;6.598;2023-12-14T11:38:59;5.30;99.90
52187;DHT22;38161;53.020;6.598;2023-12-14T11:41:25;5.30;99.90
52187;DHT22;38161;53.020;6.598;2023-12-14T11:43:51;5.30;99.90
52187;DHT22;38161;53.020;6.598;2023-12-14T11:46:18;5.40;99.90
52187;DHT22;38161;53.020;6.598;2023-12-14T11:48:44;5.40;99.90
52187;DHT22;38161;53.020;6.598;2023-12-14T11:51:11;5.40;99.90
52187;DHT22;38161;53.020;6.598;2023-12-14T11:53:37;5.50;99.90
52187;DHT22;38161;53.020;6.598;2023-12-14T11:56:08;5.50;99.90
52187;DHT22;38161;53.020;6.598;2023-12-14T11:58:34;5.50;99.90
52187;DHT22;38161;53.020;6.598;2023-12-14T12:01:19;5.50;99.90
52187;DHT22;38161;53.020;6.598;2023-12-14T12:03:50;5.60;99.90
52187;DHT22;38161;53.020;6.598;2023-12-14T12:06:26;5.50;99.90
52187;DHT22;38161;53.020;6.598;2023-12-14T12:08:56;5.50;99.90
52187;DHT22;38161;53.020;6.598;2023-12-14T12:11:23;5.50;99.90
52187;DHT22;38161;53.020;6.598;2023-12-14T12:13:55;5.50;99.90
52187;DHT22;38161;53.020;6.598;2023-12-14T12:16:21;5.50;99.90
52187;DHT22;38161;53.020;6.598;2023-12-14T12:18:47;5.50;99.90
52187;DHT22;38161;53.020;6.598;2023-12-14T12:21:12;5.50;99.90
52187;DHT22;38161;53.020;6.598;2023-12-14T12:23:39;5.50;99.90
52187;DHT22;38161;53.020;6.598;2023-12-14T12:26:05;5.50;99.90
52187;DHT22;38161;53.020;6.598;2023-12-14T12:28:31;5.50;99.90
52187;DHT22;38161;53.020;6.598;2023-12-14T12:30:57;5.50;99.90
52187;DHT22;38161;53.020;6.598;2023-12-14T12:33:25;5.50;99.90
52187;DHT22;38161;53.020;6.598;2023-12-14T12:35:54;5.60;99.90
52187;DHT22;38161;53.020;6.598;2023-12-14T12:38:20;5.60;99.90
52187;DHT22;38161;53.020;6.598;2023-12-14T12:40:46;5.70;99.90
52187;DHT22;38161;53.020;6.598;2023-12-14T12:43:13;5.70;99.90
52187;DHT22;38161;53.020;6.598;2023-12-14T12:45:39;5.70;99.90
52187;DHT22;38161;53.020;6.598;2023-12-14T12:48:05;5.70;99.90
52187;DHT22;38161;53.020;6.598;2023-12-14T12:50:32;5.60;99.90
52187;DHT22;38161;53.020;6.598;2023-12-14T12:52:58;5.60;99.90
52187;DHT22;38161;53.020;6.598;2023-12-14T12:55:24;5.60;99.90
52187;DHT22;38161;53.020;6.598;2023-12-14T12:57:50;5.60;99.90
52187;DHT22;38161;53.020;6.598;2023-12-14T13:00:15;5.60;99.90
52187;DHT22;38161;53.020;6.598;2023-12-14T13:02:43;5.60;99.90
52187;DHT22;38161;53.020;6.598;2023-12-14T13:05:10;5.60;99.90
52187;DHT22;38161;53.020;6.598;2023-12-14T13:07:37;5.60;99.90
52187;DHT22;38161;53.020;6.598;2023-12-14T13:10:03;5.60;99.90
52187;DHT22;38161;53.020;6.598;2023-12-14T13:12:31;5.50;99.90
52187;DHT22;38161;53.020;6.598;2023-12-14T13:14:57;5.60;99.90
52187;DHT22;38161;53.020;6.598;2023-12-14T13:17:22;5.60;99.90
52187;DHT22;38161;53.020;6.598;2023-12-14T13:19:49;5.60;99.90
52187;DHT22;38161;53.020;6.598;2023-12-14T13:22:15;5.60;99.90
52187;DHT22;38161;53.020;6.598;2023-12-14T13:24:41;5.50;99.90
52187;DHT22;38161;53.020;6.598;2023-12-14T13:27:06;5.60;99.90
52187;DHT22;38161;53.020;6.598;2023-12-14T13:29:32;5.60;99.90
52187;DHT22;38161;53.020;6.598;2023-12-14T13:31:59;5.60;99.90
52187;DHT22;38161;53.020;6.598;2023-12-14T13:34:26;5.60;99.90
52187;DHT22;38161;53.020;6.598;2023-12-14T13:36:56;5.60;99.90
52187;DHT22;38161;53.020;6.598;2023-12-14T13:39:22;5.60;99.90
52187;DHT22;38161;53.020;6.598;2023-12-14T13:41:49;5.60;99.90
52187;DHT22;38161;53.020;6.598;2023-12-14T13:44:15;5.60;99.90
52187;DHT22;38161;53.020;6.598;2023-12-14T13:46:41;5.60;99.90
52187;DHT22;38161;53.020;6.598;2023-12-14T13:49:06;5.60;99.90
52187;DHT22;38161;53.020;6.598;2023-12-14T13:51:32;5.50;99.90
52187;DHT22;38161;53.020;6.598;2023-12-14T13:53:58;5.50;99.90
52187;DHT22;38161;53.020;6.598;2023-12-14T13:56:23;5.40;99.90
52187;DHT22;38161;53.020;6.598;2023-12-14T13:58:49;5.40;99.90
52187;DHT22;38161;53.020;6.598;2023-12-14T14:01:15;5.40;99.90
52187;DHT22;38161;53.020;6.598;2023-12-14T14:03:41;5.40;99.90
52187;DHT22;38161;53.020;6.598;2023-12-14T14:06:08;5.40;99.90
52187;DHT22;38161;53.020;6.598;2023-12-14T14:08:34;5.40;99.90
52187;DHT22;38161;53.020;6.598;2023-12-14T14:11:00;5.40;99.90
52187;DHT22;38161;53.020;6.598;2023-12-14T14:13:26;5.40;99.90
52187;DHT22;38161;53.020;6.598;2023-12-14T14:15:53;5.30;99.90
52187;DHT22;38161;53.020;6.598;2023-12-14T14:18:18;5.30;99.90
52187;DHT22;38161;53.020;6.598;2023-12-14T14:20:44;5.30;99.90
52187;DHT22;38161;53.020;6.598;2023-12-14T14:23:11;5.30;99.90
52187;DHT22;38161;53.020;6.598;2023-12-14T14:25:37;5.30;99.90
52187;DHT22;38161;53.020;6.598;2023-12-14T14:28:03;5.20;99.90
52187;DHT22;38161;53.020;6.598;2023-12-14T14:30:29;5.20;99.90
52187;DHT22;38161;53.020;6.598;2023-12-14T14:32:55;5.20;99.90
52187;DHT22;38161;53.020;6.598;2023-12-14T14:35:21;5.20;99.90
52187;DHT22;38161;53.020;6.598;2023-12-14T14:37:49;5.20;99.90
52187;DHT22;38161;53.020;6.598;2023-12-14T14:40:15;5.20;99.90
52187;DHT22;38161;53.020;6.598;2023-12-14T14:42:42;5.20;99.90
52187;DHT22;38161;53.020;6.598;2023-12-14T14:45:08;5.20;99.90
52187;DHT22;38161;53.020;6.598;2023-12-14T14:47:35;5.30;99.90
52187;DHT22;38161;53.020;6.598;2023-12-14T14:50:01;5.30;99.90
52187;DHT22;38161;53.020;6.598;2023-12-14T14:52:32;5.30;99.90
52187;DHT22;38161;53.020;6.598;2023-12-14T14:54:58;5.30;99.90
52187;DHT22;38161;53.020;6.598;2023-12-14T14:57:24;5.30;99.90
52187;DHT22;38161;53.020;6.598;2023-12-14T14:59:50;5.30;99.90
52187;DHT22;38161;53.020;6.598;2023-12-14T15:02:17;5.20;99.90
52187;DHT22;38161;53.020;6.598;2023-12-14T15:04:42;5.20;99.90
52187;DHT22;38161;53.020;6.598;2023-12-14T15:07:08;5.20;99.90
52187;DHT22;38161;53.020;6.598;2023-12-14T15:09:34;5.30;99.90
52187;DHT22;38161;53.020;6.598;2023-12-14T15:11:59;5.20;99.90
52187;DHT22;38161;53.020;6.598;2023-12-14T15:14:25;5.20;99.90
52187;DHT22;38161;53.020;6.598;2023-12-14T15:16:56;5.20;99.90
52187;DHT22;38161;53.020;6.598;2023-12-14T15:19:22;5.20;99.90
52187;DHT22;38161;53.020;6.598;2023-12-14T15:21:48;5.20;99.90
52187;DHT22;38161;53.020;6.598;2023-12-14T15:24:17;5.20;99.90
52187;DHT22;38161;53.020;6.598;2023-12-14T15:26:45;5.20;99.90
52187;DHT22;38161;53.020;6.598;2023-12-14T15:29:11;5.20;99.90
52187;DHT22;38161;53.020;6.598;2023-12-14T15:31:37;5.20;99.90
52187;DHT22;38161;53.020;6.598;2023-12-14T15:34:02;5.10;99.90
52187;DHT22;38161;53.020;6.598;2023-12-14T15:36:29;5.20;99.90
52187;DHT22;38161;53.020;6.598;2023-12-14T15:38:56;5.60;99.90
52187;DHT22;38161;53.020;6.598;2023-12-14T15:41:22;5.10;99.90
52187;DHT22;38161;53.020;6.598;2023-12-14T15:43:47;5.10;99.90
52187;DHT22;38161;53.020;6.598;2023-12-14T15:46:13;5.00;99.90
52187;DHT22;38161;53.020;6.598;2023-12-14T15:48:39;5.00;99.90
52187;DHT22;38161;53.020;6.598;2023-12-14T15:51:07;5.00;99.90